createdAt,value
2017-01-08T00:02:19.041Z,1023.8
2017-01-08T00:04:51.377Z,1023.8
2017-01-08T00:07:23.735Z,1023.7
2017-01-08T00:09:56.040Z,1023.6
2017-01-08T00:12:28.353Z,1023.5
2017-01-08T00:15:00.648Z,1023.6
2017-01-08T00:17:33.002Z,1023.6
2017-01-08T00:20:05.343Z,1023.6
2017-01-08T00:22:37.677Z,1023.5
2017-01-08T00:25:09.975Z,1023.6
2017-01-08T00:27:42.304Z,1023.6
2017-01-08T00:30:14.598Z,1023.6
2017-01-08T00:32:46.935Z,1023.6
2017-01-08T00:35:19.249Z,1023.6
2017-01-08T00:37:51.576Z,1023.6
2017-01-08T00:40:23.893Z,1023.6
2017-01-08T00:42:56.209Z,1023.6
2017-01-08T00:45:28.563Z,1023.7
2017-01-08T00:48:00.878Z,1023.7
2017-01-08T00:50:33.210Z,1023.6
2017-01-08T00:53:05.531Z,1023.7
2017-01-08T00:55:37.850Z,1023.7
2017-01-08T00:58:10.164Z,1023.8
2017-01-08T01:00:42.519Z,1023.8
2017-01-08T01:03:14.846Z,1023.9
2017-01-08T01:05:47.161Z,1023.8
2017-01-08T01:08:19.564Z,1023.8
2017-01-08T01:10:51.898Z,1023.8
2017-01-08T01:13:24.231Z,1023.8
2017-01-08T01:15:56.539Z,1023.8
2017-01-08T01:18:28.857Z,1023.9
2017-01-08T01:21:01.167Z,1024
2017-01-08T01:23:33.472Z,1024.1
2017-01-08T01:26:05.801Z,1024
2017-01-08T01:28:38.106Z,1024
2017-01-08T01:31:10.426Z,1024
2017-01-08T01:33:42.736Z,1024.1
2017-01-08T01:36:15.049Z,1024.1
2017-01-08T01:38:47.391Z,1024.1
2017-01-08T01:41:19.710Z,1024.1
2017-01-08T01:43:52.026Z,1024.2
2017-01-08T01:46:24.352Z,1024.1
2017-01-08T01:48:56.723Z,1024.1
2017-01-08T01:51:29.041Z,1024.1
2017-01-08T01:54:01.354Z,1024.1
2017-01-08T01:56:33.674Z,1024.1
2017-01-08T01:59:06.614Z,1024
2017-01-08T02:01:38.920Z,1024
2017-01-08T02:04:11.246Z,1024.1
2017-01-08T02:06:43.594Z,1024.1
2017-01-08T02:09:15.916Z,1024.1
2017-01-08T02:11:48.242Z,1024.1
2017-01-08T02:14:20.543Z,1024
2017-01-08T02:16:52.851Z,1024
2017-01-08T02:19:25.174Z,1024
2017-01-08T02:21:57.500Z,1024
2017-01-08T02:24:29.831Z,1023.9
2017-01-08T02:27:02.158Z,1024
2017-01-08T02:29:34.451Z,1024
2017-01-08T02:32:06.746Z,1024
2017-01-08T02:34:39.068Z,1024.1
2017-01-08T02:37:11.384Z,1024.1
2017-01-08T02:39:43.714Z,1024.2
2017-01-08T02:42:16.015Z,1024.2
2017-01-08T02:44:48.341Z,1024.2
2017-01-08T02:47:20.665Z,1024.2
2017-01-08T02:49:52.987Z,1024.3
2017-01-08T02:52:25.279Z,1024.3
2017-01-08T02:54:57.803Z,1024.3
2017-01-08T02:57:30.119Z,1024.3
2017-01-08T03:00:02.435Z,1024.3
2017-01-08T03:02:34.765Z,1024.3
2017-01-08T03:05:07.095Z,1024.3
2017-01-08T03:07:39.383Z,1024.3
2017-01-08T03:10:11.715Z,1024.3
2017-01-08T03:12:44.019Z,1024.4
2017-01-08T03:15:16.361Z,1024.4
2017-01-08T03:17:48.685Z,1024.4
2017-01-08T03:20:20.996Z,1024.5
2017-01-08T03:22:53.316Z,1024.5
2017-01-08T03:25:25.634Z,1024.6
2017-01-08T03:27:57.962Z,1024.6
2017-01-08T03:30:30.271Z,1024.6
2017-01-08T03:33:02.595Z,1024.6
2017-01-08T03:35:34.896Z,1024.7
2017-01-08T03:38:07.194Z,1024.7
2017-01-08T03:40:39.506Z,1024.7
2017-01-08T03:43:11.815Z,1024.8
2017-01-08T03:45:44.142Z,1024.8
2017-01-08T03:48:16.448Z,1024.8
2017-01-08T03:50:48.759Z,1024.8
2017-01-08T03:53:21.087Z,1024.8
2017-01-08T03:55:53.377Z,1024.9
2017-01-08T03:58:25.692Z,1024.9
2017-01-08T04:00:57.999Z,1025
2017-01-08T04:03:30.312Z,1025.1
2017-01-08T04:06:02.630Z,1025.1
2017-01-08T04:08:34.919Z,1025
2017-01-08T04:11:07.229Z,1025.1
2017-01-08T04:13:39.549Z,1025.2
2017-01-08T04:16:11.884Z,1025.2
2017-01-08T04:18:44.201Z,1025.3
2017-01-08T04:21:16.502Z,1025.4
2017-01-08T04:23:48.813Z,1025.4
2017-01-08T04:26:21.132Z,1025.4
2017-01-08T04:28:53.459Z,1025.4
2017-01-08T04:31:25.809Z,1025.5
2017-01-08T04:33:58.106Z,1025.4
2017-01-08T04:36:30.424Z,1025.5
2017-01-08T04:39:02.733Z,1025.6
2017-01-08T04:41:35.061Z,1025.6
2017-01-08T04:44:07.364Z,1025.6
2017-01-08T04:46:39.695Z,1025.6
2017-01-08T04:49:12.024Z,1025.5
2017-01-08T04:51:44.343Z,1025.5
2017-01-08T04:54:16.667Z,1025.5
2017-01-08T04:56:48.973Z,1025.5
2017-01-08T04:59:21.283Z,1025.5
2017-01-08T05:01:53.596Z,1025.5
2017-01-08T05:04:25.906Z,1025.5
2017-01-08T05:06:58.228Z,1025.5
2017-01-08T05:09:30.526Z,1025.6
2017-01-08T05:12:02.842Z,1025.6
2017-01-08T05:14:35.141Z,1025.7
2017-01-08T05:17:07.469Z,1025.8
2017-01-08T05:19:39.767Z,1025.9
2017-01-08T05:22:12.089Z,1026
2017-01-08T05:24:44.396Z,1026
2017-01-08T05:27:16.719Z,1026
2017-01-08T05:29:49.029Z,1026.2
2017-01-08T05:32:21.357Z,1026.3
2017-01-08T05:34:53.665Z,1026.3
2017-01-08T05:37:25.969Z,1026.3
2017-01-08T05:39:58.273Z,1026.4
2017-01-08T05:42:30.586Z,1026.5
2017-01-08T05:45:02.908Z,1026.6
2017-01-08T05:47:35.231Z,1026.6
2017-01-08T05:50:07.537Z,1026.5
2017-01-08T05:52:39.907Z,1026.5
2017-01-08T05:55:12.271Z,1026.5
2017-01-08T05:57:44.600Z,1026.5
2017-01-08T06:00:16.920Z,1026.6
2017-01-08T06:02:49.240Z,1026.6
2017-01-08T06:05:21.543Z,1026.6
2017-01-08T06:07:53.897Z,1026.6
2017-01-08T06:10:26.205Z,1026.6
2017-01-08T06:12:58.531Z,1026.6
2017-01-08T06:15:30.838Z,1026.7
2017-01-08T06:18:03.154Z,1026.7
2017-01-08T06:20:35.471Z,1026.7
2017-01-08T06:23:07.779Z,1026.7
2017-01-08T06:25:40.107Z,1026.7
2017-01-08T06:28:12.455Z,1026.7
2017-01-08T06:30:44.767Z,1026.8
2017-01-08T06:35:56.987Z,1026.9
2017-01-08T06:38:29.320Z,1026.8
2017-01-08T06:41:01.637Z,1026.9
2017-01-08T06:43:33.979Z,1026.9
2017-01-08T06:46:06.294Z,1026.9
2017-01-08T06:48:38.617Z,1026.9
2017-01-08T06:51:10.972Z,1027
2017-01-08T06:53:43.378Z,1027
2017-01-08T06:56:15.693Z,1027
2017-01-08T06:58:48.118Z,1027
2017-01-08T07:01:20.420Z,1027.1
2017-01-08T07:10:09.180Z,1027.2
2017-01-08T07:12:41.568Z,1027.2
2017-01-08T07:15:13.971Z,1027.2
2017-01-08T07:17:46.394Z,1027.3
2017-01-08T07:20:18.878Z,1027.3
2017-01-08T07:22:51.262Z,1027.3
2017-01-08T07:25:23.697Z,1027.3
2017-01-08T07:27:56.082Z,1027.4
2017-01-08T07:30:28.469Z,1027.4
2017-01-08T07:33:00.851Z,1027.5
2017-01-08T07:35:33.223Z,1027.6
2017-01-08T07:38:05.698Z,1027.6
2017-01-08T07:40:38.104Z,1027.6
2017-01-08T07:43:10.672Z,1027.7
2017-01-08T07:45:43.311Z,1027.7
2017-01-08T07:48:15.697Z,1027.8
2017-01-08T07:50:48.095Z,1027.8
2017-01-08T07:53:20.935Z,1027.7
2017-01-08T07:55:53.871Z,1027.8
2017-01-08T07:58:26.669Z,1027.8
2017-01-08T08:00:59.066Z,1027.7
2017-01-08T08:03:31.479Z,1027.7
2017-01-08T08:06:03.860Z,1027.7
2017-01-08T08:08:36.261Z,1027.7
2017-01-08T08:11:08.651Z,1027.8
2017-01-08T08:13:41.034Z,1027.8
2017-01-08T08:16:13.420Z,1027.9
2017-01-08T08:18:45.813Z,1027.9
2017-01-08T08:21:18.190Z,1028
2017-01-08T08:23:50.586Z,1028
2017-01-08T08:26:22.965Z,1028.1
2017-01-08T08:28:55.358Z,1028.1
2017-01-08T08:31:27.754Z,1028.1
2017-01-08T08:34:00.137Z,1028.1
2017-01-08T08:36:32.517Z,1028.2
2017-01-08T08:39:04.915Z,1028.2
2017-01-08T08:41:37.320Z,1028.2
2017-01-08T08:44:09.690Z,1028.3
2017-01-08T08:46:42.066Z,1028.4
2017-01-08T08:49:14.767Z,1028.4
2017-01-08T08:51:47.369Z,1028.4
2017-01-08T08:54:19.774Z,1028.5
2017-01-08T08:56:52.155Z,1028.5
2017-01-08T08:59:24.547Z,1028.6
2017-01-08T09:01:56.915Z,1028.6
2017-01-08T09:04:29.307Z,1028.6
2017-01-08T09:07:01.673Z,1028.7
2017-01-08T09:09:34.062Z,1028.7
2017-01-08T09:12:06.464Z,1028.7
2017-01-08T09:14:39.128Z,1028.7
2017-01-08T09:17:11.748Z,1028.8
2017-01-08T09:19:44.137Z,1028.8
2017-01-08T09:22:16.555Z,1028.7
2017-01-08T09:24:48.923Z,1028.8
2017-01-08T09:27:21.307Z,1028.7
2017-01-08T09:29:53.687Z,1028.7
2017-01-08T09:32:26.082Z,1028.9
2017-01-08T09:34:58.470Z,1028.9
2017-01-08T09:37:30.857Z,1028.9
2017-01-08T09:40:03.248Z,1028.9
2017-01-08T09:42:35.873Z,1028.9
2017-01-08T09:45:08.264Z,1029
2017-01-08T09:47:40.668Z,1029
2017-01-08T09:50:13.068Z,1029.1
2017-01-08T09:52:45.461Z,1029.1
2017-01-08T09:55:17.843Z,1029.2
2017-01-08T09:57:50.253Z,1029.2
2017-01-08T10:00:22.634Z,1029.3
2017-01-08T10:02:55.025Z,1029.3
2017-01-08T10:05:27.394Z,1029.3
2017-01-08T10:07:59.773Z,1029.3
2017-01-08T10:10:32.149Z,1029.3
2017-01-08T10:13:04.535Z,1029.4
2017-01-08T10:15:36.933Z,1029.4
2017-01-08T10:18:09.309Z,1029.4
2017-01-08T10:20:41.698Z,1029.4
2017-01-08T10:23:14.099Z,1029.4
2017-01-08T10:25:46.486Z,1029.4
2017-01-08T10:28:18.879Z,1029.4
2017-01-08T10:30:51.261Z,1029.4
2017-01-08T10:33:23.650Z,1029.4
2017-01-08T10:35:56.044Z,1029.5
2017-01-08T10:38:28.423Z,1029.5
2017-01-08T10:41:00.813Z,1029.5
2017-01-08T10:43:33.208Z,1029.5
2017-01-08T10:46:05.594Z,1029.5
2017-01-08T10:48:37.967Z,1029.6
2017-01-08T10:51:10.358Z,1029.6
2017-01-08T10:53:42.745Z,1029.6
2017-01-08T10:56:15.152Z,1029.6
2017-01-08T10:58:47.523Z,1029.6
2017-01-08T11:01:19.931Z,1029.6
2017-01-08T11:03:52.318Z,1029.7
2017-01-08T11:06:24.697Z,1029.6
2017-01-08T11:08:57.084Z,1029.7
2017-01-08T11:11:29.480Z,1029.6
2017-01-08T11:14:01.880Z,1029.7
2017-01-08T11:16:34.267Z,1029.7
2017-01-08T11:19:06.673Z,1029.7
2017-01-08T11:21:39.081Z,1029.8
2017-01-08T11:24:12.093Z,1029.8
2017-01-08T11:26:44.477Z,1029.8
2017-01-08T11:29:16.848Z,1029.8
2017-01-08T11:31:49.275Z,1029.8
2017-01-08T11:34:21.676Z,1029.8
2017-01-08T11:36:54.062Z,1029.8
2017-01-08T11:39:26.452Z,1029.8
2017-01-08T11:41:58.844Z,1029.8
2017-01-08T11:44:31.225Z,1029.7
2017-01-08T11:47:03.625Z,1029.7
2017-01-08T11:49:36.007Z,1029.7
2017-01-08T11:52:08.381Z,1029.7
2017-01-08T11:54:40.771Z,1029.7
2017-01-08T11:57:13.150Z,1029.6
2017-01-08T11:59:45.550Z,1029.6
2017-01-08T12:02:17.934Z,1029.6
2017-01-08T12:04:50.311Z,1029.6
2017-01-08T12:07:22.710Z,1029.6
2017-01-08T12:09:55.113Z,1029.7
2017-01-08T12:12:27.506Z,1029.7
2017-01-08T12:14:59.881Z,1029.7
2017-01-08T12:17:32.290Z,1029.6
2017-01-08T12:20:04.664Z,1029.6
2017-01-08T12:22:37.089Z,1029.7
2017-01-08T12:25:09.491Z,1029.6
2017-01-08T12:27:41.862Z,1029.6
2017-01-08T12:30:14.253Z,1029.6
2017-01-08T12:32:46.622Z,1029.6
2017-01-08T12:35:19.022Z,1029.7
2017-01-08T12:37:51.408Z,1029.7
2017-01-08T12:40:23.798Z,1029.7
2017-01-08T12:42:56.197Z,1029.7
2017-01-08T12:45:28.598Z,1029.7
2017-01-08T12:48:00.993Z,1029.6
2017-01-08T12:50:33.366Z,1029.6
2017-01-08T12:53:05.757Z,1029.6
2017-01-08T12:55:38.434Z,1029.6
2017-01-08T12:58:10.856Z,1029.6
2017-01-08T13:00:43.222Z,1029.6
2017-01-08T13:03:15.614Z,1029.6
2017-01-08T13:05:47.990Z,1029.7
2017-01-08T13:08:20.386Z,1029.7
2017-01-08T13:10:52.779Z,1029.6
2017-01-08T13:13:25.159Z,1029.6
2017-01-08T13:15:57.562Z,1029.6
2017-01-08T13:18:29.947Z,1029.5
2017-01-08T13:21:02.339Z,1029.5
2017-01-08T13:23:34.735Z,1029.6
2017-01-08T13:26:07.120Z,1029.6
2017-01-08T13:28:39.806Z,1029.7
2017-01-08T13:31:12.212Z,1029.7
2017-01-08T13:33:44.964Z,1029.7
2017-01-08T13:36:17.351Z,1029.8
2017-01-08T13:38:49.759Z,1029.8
2017-01-08T13:41:22.144Z,1029.8
2017-01-08T13:43:54.786Z,1029.9
2017-01-08T13:46:27.184Z,1029.8
2017-01-08T13:49:00.180Z,1029.9
2017-01-08T13:51:32.566Z,1029.8
2017-01-08T13:54:04.958Z,1029.7
2017-01-08T13:56:37.384Z,1029.8
2017-01-08T13:59:09.761Z,1029.9
2017-01-08T14:01:42.166Z,1029.9
2017-01-08T14:04:14.546Z,1029.9
2017-01-08T14:06:46.936Z,1029.8
2017-01-08T14:09:19.311Z,1029.9
2017-01-08T14:11:51.704Z,1029.9
2017-01-08T14:14:24.098Z,1029.9
2017-01-08T14:16:56.462Z,1030
2017-01-08T14:19:28.864Z,1030.1
2017-01-08T14:22:01.624Z,1030.1
2017-01-08T14:24:34.016Z,1029.9
2017-01-08T14:27:06.683Z,1029.9
2017-01-08T14:29:39.092Z,1030
2017-01-08T14:32:11.476Z,1030
2017-01-08T14:34:43.841Z,1030.1
2017-01-08T14:37:16.252Z,1030
2017-01-08T14:39:48.659Z,1030.1
2017-01-08T14:42:21.069Z,1030
2017-01-08T14:44:53.562Z,1030
2017-01-08T14:47:25.964Z,1030
2017-01-08T14:49:58.354Z,1030
2017-01-08T14:52:30.933Z,1030.1
2017-01-08T14:55:03.325Z,1030.1
2017-01-08T14:57:35.723Z,1030.1
2017-01-08T15:00:11.156Z,1030.1
2017-01-08T15:02:43.520Z,1030.2
2017-01-08T15:05:15.910Z,1030.2
2017-01-08T15:07:48.297Z,1030.2
2017-01-08T15:10:20.698Z,1030.2
2017-01-08T15:12:53.061Z,1030.2
2017-01-08T15:15:25.449Z,1030.2
2017-01-08T15:17:57.847Z,1030.2
2017-01-08T15:20:30.225Z,1030.3
2017-01-08T15:23:02.630Z,1030.3
2017-01-08T15:25:35.025Z,1030.3
2017-01-08T15:28:07.423Z,1030.3
2017-01-08T15:30:39.831Z,1030.3
2017-01-08T15:33:12.458Z,1030.3
2017-01-08T15:35:44.848Z,1030.2
2017-01-08T15:38:17.243Z,1030.2
2017-01-08T15:40:49.648Z,1030.2
2017-01-08T15:43:22.038Z,1030.2
2017-01-08T15:45:54.446Z,1030.2
2017-01-08T15:48:26.843Z,1030.3
2017-01-08T15:50:59.229Z,1030.2
2017-01-08T15:53:31.619Z,1030.2
2017-01-08T15:56:04.013Z,1030.2
2017-01-08T15:58:36.616Z,1030.3
2017-01-08T16:01:09.007Z,1030.3
2017-01-08T16:03:41.412Z,1030.2
2017-01-08T16:06:13.787Z,1030.3
2017-01-08T16:08:46.181Z,1030.3
2017-01-08T16:11:18.566Z,1030.2
2017-01-08T16:13:50.978Z,1030.3
2017-01-08T16:16:23.396Z,1030.3
2017-01-08T16:18:55.790Z,1030.3
2017-01-08T16:21:28.193Z,1030.3
2017-01-08T16:24:00.571Z,1030.3
2017-01-08T16:26:32.966Z,1030.3
2017-01-08T16:29:05.373Z,1030.2
2017-01-08T16:31:37.774Z,1030.2
2017-01-08T16:34:10.161Z,1030.2
2017-01-08T16:36:42.537Z,1030.2
2017-01-08T16:39:14.940Z,1030.2
2017-01-08T16:41:47.308Z,1030.3
2017-01-08T16:44:19.698Z,1030.3
2017-01-08T16:46:52.079Z,1030.4
2017-01-08T16:49:24.484Z,1030.4
2017-01-08T16:51:56.862Z,1030.4
2017-01-08T16:54:29.245Z,1030.4
2017-01-08T16:57:01.630Z,1030.3
2017-01-08T16:59:34.023Z,1030.3
2017-01-08T17:02:06.850Z,1030.3
2017-01-08T17:04:39.236Z,1030.3
2017-01-08T17:07:11.636Z,1030.3
2017-01-08T17:09:44.007Z,1030.3
2017-01-08T17:12:16.406Z,1030.3
2017-01-08T17:14:48.783Z,1030.3
2017-01-08T17:17:21.172Z,1030.4
2017-01-08T17:19:53.581Z,1030.3
2017-01-08T17:22:25.981Z,1030.3
2017-01-08T17:24:58.364Z,1030.3
2017-01-08T17:27:30.739Z,1030.3
2017-01-08T17:30:03.148Z,1030.2
2017-01-08T17:32:35.527Z,1030.1
2017-01-08T17:35:07.917Z,1030.1
2017-01-08T17:37:40.309Z,1030.1
2017-01-08T17:40:12.685Z,1030.1
2017-01-08T17:42:45.093Z,1030
2017-01-08T17:45:17.471Z,1030
2017-01-08T17:47:49.841Z,1030
2017-01-08T17:50:22.219Z,1030
2017-01-08T17:52:54.609Z,1030
2017-01-08T17:55:27.007Z,1029.9
2017-01-08T17:57:59.413Z,1029.9
2017-01-08T18:00:31.808Z,1030
2017-01-08T18:03:04.191Z,1030
2017-01-08T18:05:36.592Z,1030
2017-01-08T18:08:08.985Z,1030
2017-01-08T18:10:41.381Z,1030.1
2017-01-08T18:13:13.752Z,1030
2017-01-08T18:15:46.136Z,1030
2017-01-08T18:18:18.533Z,1030
2017-01-08T18:20:50.923Z,1029.9
2017-01-08T18:23:23.297Z,1029.9
2017-01-08T18:25:55.686Z,1029.9
2017-01-08T18:28:28.066Z,1030
2017-01-08T18:31:00.444Z,1029.9
2017-01-08T18:33:32.843Z,1029.8
2017-01-08T18:36:05.233Z,1029.9
2017-01-08T18:38:37.616Z,1029.9
2017-01-08T18:41:10.032Z,1029.8
2017-01-08T18:43:42.401Z,1029.8
2017-01-08T18:46:14.819Z,1029.8
2017-01-08T18:48:47.210Z,1029.7
2017-01-08T18:51:19.614Z,1029.6
2017-01-08T18:53:52.018Z,1029.6
2017-01-08T18:56:24.401Z,1029.6
2017-01-08T18:58:56.769Z,1029.6
2017-01-08T19:01:29.786Z,1029.6
2017-01-08T19:04:02.180Z,1029.6
2017-01-08T19:06:34.566Z,1029.6
2017-01-08T19:09:06.958Z,1029.6
2017-01-08T19:11:39.350Z,1029.7
2017-01-08T19:14:11.729Z,1029.8
2017-01-08T19:16:44.129Z,1029.8
2017-01-08T19:19:16.535Z,1029.7
2017-01-08T19:21:48.925Z,1029.8
2017-01-08T19:24:21.301Z,1029.8
2017-01-08T19:26:53.722Z,1029.8
2017-01-08T19:29:26.111Z,1029.8
2017-01-08T19:31:58.514Z,1029.8
2017-01-08T19:34:30.904Z,1029.7
2017-01-08T19:37:03.286Z,1029.8
2017-01-08T19:39:35.683Z,1029.7
2017-01-08T19:42:08.068Z,1029.8
2017-01-08T19:44:40.446Z,1029.7
2017-01-08T19:47:12.842Z,1029.7
2017-01-08T19:49:45.235Z,1029.8
2017-01-08T19:52:17.611Z,1029.8
2017-01-08T19:54:50.006Z,1029.9
2017-01-08T19:57:22.388Z,1029.9
2017-01-08T19:59:54.754Z,1029.8
2017-01-08T20:02:27.159Z,1029.8
2017-01-08T20:04:59.533Z,1029.8
2017-01-08T20:07:31.940Z,1029.7
2017-01-08T20:10:04.307Z,1029.8
2017-01-08T20:12:36.694Z,1029.7
2017-01-08T20:15:09.091Z,1029.7
2017-01-08T20:17:41.478Z,1029.8
2017-01-08T20:20:13.857Z,1029.8
2017-01-08T20:22:46.258Z,1029.7
2017-01-08T20:25:18.628Z,1029.8
2017-01-08T20:27:51.007Z,1029.7
2017-01-08T20:30:23.382Z,1029.7
2017-01-08T20:32:55.778Z,1029.7
2017-01-08T20:35:28.165Z,1029.7
2017-01-08T20:38:00.566Z,1029.8
2017-01-08T20:40:32.939Z,1029.8
2017-01-08T20:43:05.316Z,1029.8
2017-01-08T20:45:37.704Z,1029.8
2017-01-08T20:48:10.094Z,1029.7
2017-01-08T20:50:42.491Z,1029.8
2017-01-08T20:53:14.874Z,1029.9
2017-01-08T20:55:47.261Z,1029.8
2017-01-08T20:58:19.646Z,1029.8
2017-01-08T21:00:52.046Z,1029.9
2017-01-08T21:03:24.428Z,1029.8
2017-01-08T21:05:56.805Z,1029.8
2017-01-08T21:08:29.187Z,1029.8
2017-01-08T21:11:01.562Z,1029.8
2017-01-08T21:13:33.956Z,1029.8
2017-01-08T21:16:06.328Z,1029.8
2017-01-08T21:18:38.725Z,1029.8
2017-01-08T21:21:11.110Z,1029.9
2017-01-08T21:23:43.471Z,1029.9
2017-01-08T21:26:15.855Z,1029.9
2017-01-08T21:28:48.254Z,1030
2017-01-08T21:31:20.647Z,1029.9
2017-01-08T21:33:53.034Z,1030
2017-01-08T21:36:25.406Z,1030
2017-01-08T21:38:57.787Z,1030
2017-01-08T21:41:30.167Z,1030
2017-01-08T21:44:02.557Z,1029.9
2017-01-08T21:46:34.954Z,1029.9
2017-01-08T21:49:07.325Z,1030
2017-01-08T21:51:39.727Z,1030
2017-01-08T21:54:12.123Z,1029.9
2017-01-08T21:56:44.513Z,1029.9
2017-01-08T21:59:16.890Z,1029.9
2017-01-08T22:01:49.250Z,1030
2017-01-08T22:04:21.635Z,1029.9
2017-01-08T22:06:54.005Z,1029.9
2017-01-08T22:09:26.409Z,1029.9
2017-01-08T22:11:58.814Z,1029.9
2017-01-08T22:14:31.215Z,1029.9
2017-01-08T22:17:03.605Z,1029.9
2017-01-08T22:19:36.189Z,1030
2017-01-08T22:22:08.583Z,1030
2017-01-08T22:24:40.972Z,1029.9
2017-01-08T22:27:13.362Z,1030
2017-01-08T22:29:45.744Z,1030
2017-01-08T22:32:18.124Z,1029.9
2017-01-08T22:34:50.532Z,1030
2017-01-08T22:37:22.921Z,1030
2017-01-08T22:39:55.315Z,1030
2017-01-08T22:42:27.676Z,1029.9
2017-01-08T22:45:00.051Z,1029.8
2017-01-08T22:47:32.434Z,1029.8
2017-01-08T22:50:04.827Z,1029.8
2017-01-08T22:52:37.214Z,1029.8
2017-01-08T22:55:09.590Z,1029.8
2017-01-08T22:57:41.971Z,1029.8
2017-01-08T23:00:14.341Z,1029.8
2017-01-08T23:02:46.741Z,1029.7
2017-01-08T23:05:19.134Z,1029.7
2017-01-08T23:07:51.500Z,1029.6
2017-01-08T23:10:23.894Z,1029.6
2017-01-08T23:12:56.268Z,1029.6
2017-01-08T23:15:28.671Z,1029.5
2017-01-08T23:18:01.048Z,1029.5
2017-01-08T23:20:33.451Z,1029.5
2017-01-08T23:23:05.822Z,1029.5
2017-01-08T23:25:38.202Z,1029.4
2017-01-08T23:28:10.599Z,1029.4
2017-01-08T23:30:42.993Z,1029.3
2017-01-08T23:33:15.575Z,1029.4
2017-01-08T23:35:47.966Z,1029.3
2017-01-08T23:38:20.343Z,1029.2
2017-01-08T23:40:52.734Z,1029.3
2017-01-08T23:43:25.130Z,1029.2
2017-01-08T23:45:57.521Z,1029.2
2017-01-08T23:48:29.928Z,1029.2
2017-01-08T23:51:02.316Z,1029.2
2017-01-08T23:53:34.715Z,1029.2
2017-01-08T23:56:07.085Z,1029.1
2017-01-08T23:58:39.452Z,1029.1
